Time;durP1;ratioP1;P1;durP2;ratioP2;P2;SDS_P1;SDS_P2;PMS_P1;PMS_P2;Temp;Humidity;BMP_temperature;BMP_pressure;BME280_temperature;BME280_humidity;BME280_pressure;Samples;Min_cycle;Max_cycle;Signal;HPM_P1;HPM_P2
2021/03/12 00:01:36;;;;;;;;;12.25;11.00;;;;;14.28;37.63;97474.03;6232776;27;124658;-59
2021/03/12 00:04:37;;;;;;;;;13.00;11.00;;;;;14.30;37.52;97455.59;6229053;28;125288;-59
2021/03/12 00:07:40;;;;;;;;;13.00;11.60;;;;;14.30;37.41;97447.47;6257375;27;126647;-59
2021/03/12 00:10:42;;;;;;;;;13.00;11.00;;;;;14.19;37.36;97451.31;6256350;27;127124;-59
2021/03/12 00:13:44;;;;;;;;;11.80;10.20;;;;;13.94;37.56;97422.47;6237165;27;128200;-59
2021/03/12 00:16:46;;;;;;;;;12.00;11.00;;;;;14.14;37.64;97446.75;6219131;28;125278;-59
2021/03/12 00:19:47;;;;;;;;;10.00;10.00;;;;;14.15;37.63;97467.34;6249609;27;124087;-59
2021/03/12 00:22:50;;;;;;;;;13.00;12.00;;;;;14.21;37.47;97460.00;6238677;27;126370;-59
2021/03/12 00:25:52;;;;;;;;;13.00;11.00;;;;;14.17;37.44;97467.84;6218669;28;124945;-60
2021/03/12 00:28:54;;;;;;;;;13.00;12.40;;;;;14.12;37.47;97467.09;6236616;28;124741;-59
2021/03/12 00:31:55;;;;;;;;;11.40;11.00;;;;;13.98;37.27;97474.19;6242002;27;125362;-59
2021/03/12 00:34:57;;;;;;;;;13.00;13.00;;;;;13.99;37.54;97484.75;6235958;27;126226;-59
2021/03/12 00:37:59;;;;;;;;;17.20;12.80;;;;;13.97;37.39;97481.53;6243112;27;126328;-59
2021/03/12 00:41:05;;;;;;;;;14.40;12.40;;;;;13.84;37.24;97482.91;6243948;27;127340;-59
2021/03/12 00:44:13;;;;;;;;;14.00;13.00;;;;;13.97;37.44;97505.91;6244642;27;125676;-59
2021/03/12 00:47:21;;;;;;;;;15.60;14.60;;;;;14.04;37.28;97508.31;6243694;27;126350;-60
2021/03/12 00:50:27;;;;;;;;;14.75;12.00;;;;;14.06;37.10;97501.53;6244075;27;125585;-59
2021/03/12 00:53:29;;;;;;;;;15.00;14.00;;;;;13.82;37.62;97468.03;6244611;27;126169;-59
2021/03/12 00:56:31;;;;;;;;;11.67;10.00;;;;;14.04;37.67;97486.63;6242638;27;125310;-59
2021/03/12 00:59:36;;;;;;;;;10.00;10.00;;;;;13.96;38.23;97488.03;6243511;27;124067;-59
2021/03/12 01:02:38;;;;;;;;;10.40;9.40;;;;;13.86;38.84;97486.16;6242855;27;126767;-59
2021/03/12 01:05:40;;;;;;;;;9.25;9.00;;;;;14.02;38.83;97489.63;6242984;27;126504;-59
2021/03/12 01:08:43;;;;;;;;;10.00;9.00;;;;;13.93;39.20;97499.41;6243021;27;124179;-59
2021/03/12 01:11:45;;;;;;;;;9.00;8.00;;;;;13.90;39.49;97489.13;6242745;27;126420;-59
2021/03/12 01:14:48;;;;;;;;;10.20;10.00;;;;;13.92;40.04;97496.97;6221647;28;127757;-59
2021/03/12 01:17:50;;;;;;;;;10.40;9.60;;;;;13.57;40.50;97441.03;6233825;27;126474;-59
2021/03/12 01:20:52;;;;;;;;;9.00;9.00;;;;;13.94;40.66;97500.22;6253584;27;127538;-59
2021/03/12 01:23:57;;;;;;;;;10.00;9.80;;;;;13.78;41.26;97497.56;6225514;27;124885;-59
2021/03/12 01:27:00;;;;;;;;;12.00;11.00;;;;;13.90;41.89;97489.13;6226706;27;125287;-59
2021/03/12 01:30:10;;;;;;;;;10.00;10.00;;;;;13.64;42.56;97484.88;6242951;27;124807;-59
2021/03/12 01:33:12;;;;;;;;;9.25;9.25;;;;;13.67;42.93;97489.75;6243370;27;125965;-59
2021/03/12 01:36:13;;;;;;;;;10.00;9.00;;;;;13.67;43.45;97476.22;6261120;27;124200;-59
2021/03/12 01:39:25;;;;;;;;;10.00;9.00;;;;;13.51;44.09;97474.63;6261441;27;126045;-60
2021/03/12 01:42:28;;;;;;;;;9.80;9.00;;;;;13.54;44.69;97474.06;6242476;27;125541;-59
2021/03/12 01:45:50;;;;;;;;;10.00;10.00;;;;;13.43;45.34;97471.41;6261197;27;126632;-60
2021/03/12 01:48:56;;;;;;;;;9.20;8.00;;;;;13.25;45.60;97452.19;6242940;27;124881;-59
2021/03/12 01:51:58;;;;;;;;;11.00;10.00;;;;;13.29;45.82;97459.50;6229062;28;126536;-59
2021/03/12 01:55:01;;;;;;;;;9.00;9.00;;;;;12.05;46.55;97317.63;6234622;28;126185;-59
2021/03/12 01:58:05;;;;;;;;;9.40;9.40;;;;;13.06;46.50;97472.75;6218003;28;124949;-59
2021/03/12 02:01:13;;;;;;;;;9.00;8.60;;;;;12.96;46.17;97473.59;6218278;27;124441;-59
2021/03/12 02:04:23;;;;;;;;;11.00;9.00;;;;;12.82;46.27;97469.81;6217393;28;125891;-59
2021/03/12 02:07:51;;;;;;;;;8.00;7.00;;;;;12.83;46.59;97469.53;6231693;27;124935;-59
2021/03/12 02:11:01;;;;;;;;;9.60;9.00;;;;;12.58;46.93;97462.22;6240855;27;127482;-60
2021/03/12 02:14:15;;;;;;;;;11.00;10.40;;;;;12.37;47.53;97473.25;6242671;27;126000;-59
2021/03/12 02:17:24;;;;;;;;;10.00;9.00;;;;;12.37;47.43;97473.25;6242870;27;124957;-59
2021/03/12 02:20:42;;;;;;;;;10.00;9.00;;;;;12.29;47.76;97477.31;6242167;27;124156;-59
2021/03/12 02:24:10;;;;;;;;;9.00;8.00;;;;;12.28;47.46;97477.56;6242203;27;126139;-59
2021/03/12 02:27:13;;;;;;;;;8.00;8.00;;;;;12.19;47.62;97479.97;6241461;27;126206;-61
2021/03/12 02:30:19;;;;;;;;;9.00;8.00;;;;;12.10;47.61;97478.88;6260418;27;125031;-61
2021/03/12 02:33:27;;;;;;;;;8.00;8.00;;;;;12.17;47.28;97457.03;6240298;27;124741;-61
2021/03/12 02:36:35;;;;;;;;;10.00;9.00;;;;;12.10;47.34;97473.47;6240381;27;126740;-61
2021/03/12 02:39:45;;;;;;;;;9.75;8.75;;;;;12.19;47.07;97479.16;6241902;27;126159;-61
2021/03/12 02:42:48;;;;;;;;;10.00;9.00;;;;;12.11;46.87;97461.59;6242372;27;124861;-61
2021/03/12 02:45:51;;;;;;;;;9.50;9.00;;;;;12.12;46.83;97463.19;6242473;27;125184;-61
2021/03/12 02:48:56;;;;;;;;;7.75;7.00;;;;;11.94;46.59;97399.69;6216576;28;127008;-61
2021/03/12 02:51:59;;;;;;;;;7.00;7.00;;;;;11.89;46.37;97396.16;6215734;28;126896;-61
2021/03/12 02:55:04;;;;;;;;;6.75;6.00;;;;;12.11;46.29;97438.09;6216138;28;124972;-61
2021/03/12 02:58:17;;;;;;;;;8.00;6.00;;;;;12.35;46.28;97460.03;6218713;27;124769;-59
2021/03/12 03:01:20;;;;;;;;;8.40;8.00;;;;;12.38;46.02;97464.06;6240745;27;125050;-61
2021/03/12 03:04:49;;;;;;;;;7.00;7.00;;;;;12.33;46.22;97440.56;6255186;27;124762;-61
2021/03/12 03:08:07;;;;;;;;;7.00;6.40;;;;;12.41;46.07;97439.25;6240749;27;124221;-61
2021/03/12 03:11:12;;;;;;;;;7.60;7.00;;;;;12.47;45.70;97459.75;6259634;27;124578;-61
2021/03/12 03:14:31;;;;;;;;;5.60;5.60;;;;;12.55;45.42;97443.03;6241693;27;124646;-61
2021/03/12 03:17:38;;;;;;;;;6.00;6.00;;;;;12.65;45.54;97423.31;6241218;27;124873;-62
2021/03/12 03:20:42;;;;;;;;;6.00;5.00;;;;;12.29;45.46;97376.53;6241776;27;124357;-61
2021/03/12 03:23:45;;;;;;;;;8.40;6.60;;;;;12.66;45.27;97420.31;6241058;27;126388;-61
2021/03/12 03:26:48;;;;;;;;;7.80;7.00;;;;;12.53;45.67;97437.88;6234933;27;124603;-62
2021/03/12 03:29:49;;;;;;;;;6.50;6.50;;;;;12.48;45.62;97437.88;6216572;28;125265;-61
2021/03/12 03:32:53;;;;;;;;;7.00;6.00;;;;;12.12;45.40;97388.38;6234610;28;126844;-61
2021/03/12 03:35:57;;;;;;;;;6.00;5.80;;;;;12.42;45.19;97435.44;6233532;27;125940;-61
2021/03/12 03:39:00;;;;;;;;;8.20;6.80;;;;;12.40;45.52;97435.72;6240160;27;126711;-61
2021/03/12 03:42:07;;;;;;;;;7.00;7.00;;;;;12.42;45.47;97440.84;6241574;27;126127;-61
2021/03/12 03:45:09;;;;;;;;;8.00;7.00;;;;;12.40;45.50;97437.59;6259302;27;126055;-61
2021/03/12 03:48:14;;;;;;;;;7.00;5.00;;;;;12.32;45.24;97405.69;6225033;27;125703;-61
2021/03/12 03:51:17;;;;;;;;;6.40;5.60;;;;;12.58;44.94;97439.78;6240885;27;126283;-61
2021/03/12 03:54:22;;;;;;;;;8.00;6.00;;;;;12.54;45.13;97436.81;6240717;27;125934;-62
2021/03/12 03:57:30;;;;;;;;;5.00;5.00;;;;;12.50;44.94;97448.44;6232412;27;124730;-61
2021/03/12 04:00:33;;;;;;;;;7.00;6.60;;;;;12.53;45.00;97456.81;6237628;27;126744;-62
2021/03/12 04:03:41;;;;;;;;;5.00;5.00;;;;;12.59;44.52;97444.94;6240003;27;124894;-61
2021/03/12 04:06:45;;;;;;;;;6.00;5.20;;;;;12.58;44.90;97448.72;6240194;27;124482;-61
2021/03/12 04:09:51;;;;;;;;;6.00;6.00;;;;;12.42;44.75;97435.44;6240339;27;124946;-61
2021/03/12 04:12:56;;;;;;;;;5.00;5.00;;;;;12.60;44.74;97451.16;6240940;27;126292;-61
2021/03/12 04:15:58;;;;;;;;;5.60;5.00;;;;;12.63;44.37;97463.31;6241528;27;126181;-59
2021/03/12 04:19:03;;;;;;;;;5.00;5.00;;;;;12.61;44.57;97468.19;6239408;27;126166;-61
2021/03/12 04:22:07;;;;;;;;;7.00;5.50;;;;;12.63;44.75;97453.31;6240297;27;125066;-62
2021/03/12 04:25:10;;;;;;;;;5.00;5.00;;;;;12.72;44.50;97465.19;6224101;27;124995;-61
2021/03/12 04:28:12;;;;;;;;;6.00;5.00;;;;;12.72;44.33;97469.78;6224101;28;125464;-59
2021/03/12 04:31:14;;;;;;;;;5.00;5.00;;;;;12.78;44.16;97469.53;6256886;27;125318;-59
2021/03/12 04:34:16;;;;;;;;;5.60;5.00;;;;;12.79;43.98;97462.25;6239705;27;127603;-61
2021/03/12 04:37:20;;;;;;;;;5.00;5.00;;;;;12.82;44.16;97472.50;6231361;27;127059;-61
2021/03/12 04:40:22;;;;;;;;;5.00;5.00;;;;;12.87;43.95;97472.50;6233866;27;125263;-61
2021/03/12 04:43:26;;;;;;;;;5.40;4.20;;;;;12.89;44.00;97478.47;6215493;28;126177;-61
2021/03/12 04:46:30;;;;;;;;;5.00;5.00;;;;;12.97;43.68;97486.84;6227722;27;124875;-61
2021/03/12 04:49:33;;;;;;;;;6.40;6.00;;;;;12.80;43.68;97463.88;6233011;28;124214;-59
2021/03/12 04:52:40;;;;;;;;;7.00;6.00;;;;;12.95;43.79;97486.28;6218274;28;124689;-59
2021/03/12 04:55:43;;;;;;;;;6.20;6.00;;;;;12.93;43.82;97498.47;6235276;28;126519;-59
2021/03/12 04:58:50;;;;;;;;;6.00;5.25;;;;;12.93;43.94;97526.34;6237592;27;125997;-59
2021/03/12 05:01:53;;;;;;;;;8.40;7.00;;;;;12.91;43.86;97523.09;6242020;27;126565;-61
2021/03/12 05:04:59;;;;;;;;;8.00;7.40;;;;;12.97;43.97;97516.59;6243414;27;125518;-61
2021/03/12 05:08:02;;;;;;;;;7.00;6.00;;;;;12.99;43.63;97516.34;6242221;27;126534;-61
2021/03/12 05:11:11;;;;;;;;;5.00;5.00;;;;;13.01;43.68;97509.56;6243673;27;124097;-61
2021/03/12 05:14:24;;;;;;;;;7.40;7.00;;;;;13.01;43.72;97492.53;6243889;27;124730;-61
2021/03/12 05:17:27;;;;;;;;;7.00;6.00;;;;;13.02;43.50;97480.63;6236457;27;126963;-61
2021/03/12 05:20:30;;;;;;;;;5.00;4.00;;;;;13.02;43.74;97484.13;6237864;27;125030;-61
2021/03/12 05:23:32;;;;;;;;;7.00;6.80;;;;;12.96;43.86;97496.03;6243964;27;125044;-61
2021/03/12 05:26:34;;;;;;;;;6.00;5.60;;;;;12.87;43.99;97504.97;6238147;27;124833;-61
2021/03/12 05:29:36;;;;;;;;;6.00;6.00;;;;;12.67;43.98;97472.50;6233895;27;125058;-61
2021/03/12 05:32:40;;;;;;;;;6.00;6.00;;;;;12.79;44.36;97500.09;6244341;27;127316;-61
2021/03/12 05:35:43;;;;;;;;;6.00;5.00;;;;;12.84;44.34;97510.91;6240240;27;124843;-61
2021/03/12 05:38:47;;;;;;;;;6.00;5.00;;;;;12.88;44.19;97531.75;6225082;28;125302;-61
2021/03/12 05:41:49;;;;;;;;;9.00;9.00;;;;;12.58;44.64;97491.97;6236045;28;124612;-61
2021/03/12 05:44:57;;;;;;;;;7.40;7.00;;;;;12.86;44.55;97538.50;6218524;28;125959;-61
2021/03/12 05:48:04;;;;;;;;;8.40;8.00;;;;;12.89;44.31;97540.69;6230376;27;125980;-61
2021/03/12 05:51:06;;;;;;;;;9.00;8.00;;;;;12.94;44.33;97537.97;6243089;27;127823;-60
2021/03/12 05:54:08;;;;;;;;;12.00;9.00;;;;;12.98;44.23;97545.28;6261733;27;127784;-61
2021/03/12 05:57:12;;;;;;;;;9.00;9.00;;;;;12.92;44.51;97543.66;6250244;27;124749;-61
2021/03/12 06:00:15;;;;;;;;;10.60;9.00;;;;;13.02;44.34;97537.44;6261242;27;127388;-61
2021/03/12 06:03:26;;;;;;;;;7.00;7.00;;;;;13.07;44.25;97550.97;6240362;27;125932;-61
2021/03/12 06:06:29;;;;;;;;;8.80;8.00;;;;;13.13;44.36;97559.94;6230585;28;127504;-61
2021/03/12 06:09:30;;;;;;;;;11.75;11.00;;;;;13.07;44.50;97567.19;6234368;27;126176;-61
2021/03/12 06:12:38;;;;;;;;;12.00;10.00;;;;;13.19;44.37;97562.38;6218040;28;125911;-61
2021/03/12 06:15:43;;;;;;;;;9.25;8.75;;;;;13.20;44.15;97573.97;6217456;28;124558;-61
2021/03/12 06:19:10;;;;;;;;;11.00;10.00;;;;;13.25;44.23;97574.00;6220252;27;125024;-61
2021/03/12 06:22:12;;;;;;;;;9.00;9.00;;;;;13.29;44.18;97586.69;6219253;27;126011;-61
2021/03/12 06:25:26;;;;;;;;;12.00;11.00;;;;;13.16;44.31;97595.38;6231072;28;126680;-61
2021/03/12 06:29:08;;;;;;;;;9.80;9.80;;;;;13.06;44.41;97587.22;6232200;27;125910;-61
2021/03/12 06:32:44;;;;;;;;;11.00;10.00;;;;;13.22;44.29;97623.25;6199678;27;124618;-61
2021/03/12 06:36:06;;;;;;;;;12.00;10.00;;;;;13.24;44.45;97615.69;6241561;27;125824;-61
2021/03/12 06:39:35;;;;;;;;;11.00;10.20;;;;;13.43;44.31;97614.06;6240976;27;124869;-61
2021/03/12 06:43:03;;;;;;;;;13.00;12.00;;;;;13.58;44.02;97633.03;6240802;27;125015;-61
2021/03/12 06:46:05;;;;;;;;;12.00;10.20;;;;;13.79;43.32;97626.50;6215833;28;124734;-61
2021/03/12 06:49:18;;;;;;;;;10.00;10.00;;;;;14.10;42.82;97638.09;6222780;27;124015;-61
2021/03/12 06:52:37;;;;;;;;;10.00;9.00;;;;;14.62;41.89;97640.38;6227470;27;124466;-61
2021/03/12 06:55:51;;;;;;;;;11.00;10.40;;;;;15.19;40.78;97636.31;6239892;27;123883;-61
2021/03/12 06:59:08;;;;;;;;;9.75;8.50;;;;;15.14;40.31;97639.84;6240356;27;126094;-62
2021/03/12 07:02:30;;;;;;;;;9.00;9.00;;;;;15.04;40.29;97644.53;6240765;27;127192;-61
2021/03/12 07:05:53;;;;;;;;;11.00;11.00;;;;;14.76;40.50;97621.59;6241072;27;125808;-61
2021/03/12 07:09:05;;;;;;;;;8.00;7.60;;;;;14.80;40.53;97673.41;6228445;27;126721;-60
2021/03/12 07:12:47;;;;;;;;;9.00;8.00;;;;;14.70;40.89;97690.56;6242352;27;125639;-60
2021/03/12 07:15:56;;;;;;;;;10.20;9.20;;;;;14.64;40.75;97689.75;6238916;27;126600;-60
2021/03/12 07:19:17;;;;;;;;;9.60;9.00;;;;;14.54;40.47;97686.25;6239330;27;126212;-61
2021/03/12 07:22:20;;;;;;;;;10.00;9.60;;;;;14.55;40.33;97693.31;6231603;27;127502;-61
2021/03/12 07:25:27;;;;;;;;;8.20;7.40;;;;;14.66;40.29;97684.84;6239310;27;124945;-61
2021/03/12 07:28:35;;;;;;;;;10.00;9.40;;;;;14.45;40.33;97669.75;6233484;27;126422;-61
2021/03/12 07:32:00;;;;;;;;;11.00;9.00;;;;;14.76;39.89;97684.00;6244885;27;124868;-61
2021/03/12 07:35:06;;;;;;;;;11.00;9.00;;;;;15.02;39.60;97695.56;6237672;27;124931;-59
2021/03/12 07:38:34;;;;;;;;;11.50;10.50;;;;;15.43;38.70;97707.81;6236362;27;126070;-60
2021/03/12 07:41:44;;;;;;;;;10.00;9.00;;;;;15.51;38.23;97717.31;6238191;27;126814;-61
2021/03/12 07:45:18;;;;;;;;;8.00;7.00;;;;;15.90;38.00;97720.00;6236598;27;125777;-61
2021/03/12 07:48:38;;;;;;;;;9.00;8.00;;;;;16.32;37.31;97727.53;6268927;27;126412;-60
2021/03/12 07:51:50;;;;;;;;;9.00;8.00;;;;;16.54;36.73;97729.75;6243886;27;126061;-59
2021/03/12 07:54:54;;;;;;;;;7.80;7.00;;;;;16.43;36.43;97737.19;6253398;27;124704;-60
2021/03/12 07:58:09;;;;;;;;;8.00;8.00;;;;;16.40;36.14;97733.16;6237493;27;124772;-61
2021/03/12 08:01:47;;;;;;;;;7.00;6.80;;;;;16.78;35.04;97687.06;6235968;27;126897;-60
2021/03/12 08:04:50;;;;;;;;;8.00;7.00;;;;;17.49;34.27;97755.03;6230034;27;126027;-60
2021/03/12 08:08:31;;;;;;;;;7.60;7.00;;;;;17.58;33.96;97727.94;6237311;27;125945;-60
2021/03/12 08:11:52;;;;;;;;;6.20;6.20;;;;;18.86;31.84;97726.31;6219719;27;124663;-61
2021/03/12 08:15:26;;;;;;;;;5.60;5.60;;;;;20.94;28.01;97724.94;6236560;27;125895;-61
2021/03/12 08:18:34;;;;;;;;;6.60;6.60;;;;;22.73;25.56;97703.38;6236261;27;126065;-61
2021/03/12 08:21:58;;;;;;;;;7.00;5.80;;;;;24.96;23.29;97727.56;6247870;27;125177;-60
2021/03/12 08:25:12;;;;;;;;;6.20;6.00;;;;;26.68;21.74;97722.88;6249247;27;125517;-58
2021/03/12 08:28:29;;;;;;;;;8.00;7.00;;;;;27.13;20.74;97736.31;6254255;27;126969;-58
2021/03/12 08:31:56;;;;;;;;;9.00;8.00;;;;;27.08;20.78;97757.91;6251838;27;125865;-60
2021/03/12 08:35:34;;;;;;;;;8.60;8.00;;;;;26.52;21.40;97748.91;6240829;27;127019;-58
2021/03/12 08:38:54;;;;;;;;;8.50;7.50;;;;;27.18;20.45;97751.81;6261819;27;125075;-60
2021/03/12 08:42:56;;;;;;;;;8.00;7.00;;;;;24.77;22.29;97754.84;6249691;27;124785;-60
2021/03/12 08:46:28;;;;;;;;;5.00;4.50;;;;;25.16;22.04;97759.75;6234364;27;125845;-61
2021/03/12 08:49:32;;;;;;;;;6.00;5.67;;;;;25.04;21.90;97710.09;6231071;27;127005;-58
2021/03/12 08:52:52;;;;;;;;;6.00;5.00;;;;;23.76;24.05;97779.03;6237226;27;125980;-59
2021/03/12 08:56:08;;;;;;;;;5.00;5.00;;;;;24.36;23.50;97775.03;6241530;27;124659;-59
2021/03/12 08:59:28;;;;;;;;;5.00;5.00;;;;;23.89;24.43;97761.47;6221390;27;124766;-59
2021/03/12 09:02:43;;;;;;;;;7.40;6.00;;;;;22.91;25.13;97789.31;6212779;27;124694;-60
2021/03/12 09:05:53;;;;;;;;;7.50;7.50;;;;;21.34;26.98;97783.31;6224811;27;124687;-61
2021/03/12 09:09:02;;;;;;;;;7.00;6.60;;;;;20.05;28.90;97801.66;6228803;27;125956;-59
2021/03/12 09:12:32;;;;;;;;;7.25;5.75;;;;;18.86;30.77;97818.38;6241397;27;125126;-60
2021/03/12 09:15:43;;;;;;;;;5.75;5.75;;;;;18.03;31.99;97821.91;6233170;27;124936;-61
2021/03/12 09:19:04;;;;;;;;;7.00;6.00;;;;;17.30;33.27;97823.09;6212600;27;123623;-62
2021/03/12 09:22:22;;;;;;;;;4.00;3.20;;;;;16.37;34.50;97787.31;6240361;27;125655;-61
2021/03/12 09:25:32;;;;;;;;;5.00;4.00;;;;;16.15;35.10;97805.97;6233700;27;124601;-59
2021/03/12 09:28:57;;;;;;;;;5.00;4.00;;;;;15.23;36.70;97786.69;6226994;27;126083;-59
2021/03/12 09:31:59;;;;;;;;;5.00;5.00;;;;;14.98;37.70;97811.19;6239447;27;123940;-59
2021/03/12 09:35:17;;;;;;;;;3.80;3.40;;;;;15.14;37.95;97850.78;6215755;28;125313;-59
2021/03/12 09:38:30;;;;;;;;;4.00;4.00;;;;;14.69;39.17;97860.63;6215431;27;126352;-58
2021/03/12 09:41:43;;;;;;;;;5.00;5.00;;;;;14.21;40.09;97855.72;6240161;27;123494;-58
2021/03/12 09:44:47;;;;;;;;;4.00;4.00;;;;;13.99;40.81;97885.78;6240778;27;125968;-58
2021/03/12 09:47:55;;;;;;;;;4.00;3.00;;;;;14.10;40.57;97883.91;6238600;27;125209;-58
2021/03/12 09:51:01;;;;;;;;;4.00;4.00;;;;;14.08;41.29;97891.47;6239284;27;124723;-59
2021/03/12 09:54:07;;;;;;;;;4.00;4.00;;;;;14.20;41.26;97889.34;6222149;27;126120;-58
2021/03/12 09:57:19;;;;;;;;;3.80;3.00;;;;;14.24;41.28;97893.13;6240315;27;126100;-59
2021/03/12 10:00:25;;;;;;;;;3.00;2.80;;;;;14.44;40.87;97895.09;6238292;27;124693;-60
2021/03/12 10:03:37;;;;;;;;;4.00;4.00;;;;;14.82;40.44;97899.94;6230355;27;126014;-59
2021/03/12 10:07:08;;;;;;;;;4.80;4.00;;;;;15.31;39.51;97899.31;6235242;27;125318;-58
2021/03/12 10:10:39;;;;;;;;;6.75;6.00;;;;;15.21;39.66;97896.63;6232345;27;125352;-59
2021/03/12 10:13:54;;;;;;;;;7.00;7.00;;;;;14.89;40.87;97911.34;6235432;27;126638;-58
2021/03/12 10:17:27;;;;;;;;;9.20;8.00;;;;;14.38;41.94;97899.69;6225654;27;124689;-60
2021/03/12 10:20:35;;;;;;;;;7.40;6.00;;;;;14.57;41.65;97900.78;6230149;27;124932;-59
2021/03/12 10:23:37;;;;;;;;;8.00;8.00;;;;;14.44;42.07;97916.78;6224800;27;125994;-58
2021/03/12 10:26:44;;;;;;;;;9.40;9.00;;;;;14.54;43.02;97943.91;6249929;27;126798;-60
2021/03/12 10:29:46;;;;;;;;;9.00;8.40;;;;;14.29;44.76;97939.22;6258775;27;127174;-59
2021/03/12 10:32:53;;;;;;;;;8.00;7.00;;;;;14.01;45.24;97934.28;6255622;27;126033;-58
2021/03/12 10:35:59;;;;;;;;;6.00;6.00;;;;;13.98;45.57;97937.50;6248075;27;126011;-58
2021/03/12 10:39:01;;;;;;;;;7.75;7.25;;;;;13.98;45.02;97921.25;6257424;27;124568;-58
2021/03/12 10:42:03;;;;;;;;;7.40;6.40;;;;;14.03;45.29;97941.06;6247736;27;127770;-59
2021/03/12 10:45:07;;;;;;;;;7.00;6.50;;;;;14.64;44.91;97914.06;6248471;27;125701;-58
2021/03/12 10:48:09;;;;;;;;;7.00;7.00;;;;;16.31;41.96;97917.09;6257972;27;124805;-59
2021/03/12 10:51:36;;;;;;;;;9.75;9.75;;;;;17.32;39.84;97915.44;6242179;27;126449;-58
2021/03/12 10:54:38;;;;;;;;;5.20;5.20;;;;;17.28;38.13;97881.72;6255984;27;126607;-59
2021/03/12 10:57:46;;;;;;;;;7.00;6.00;;;;;17.37;38.02;97909.94;6256439;27;126535;-58
2021/03/12 11:01:05;;;;;;;;;6.40;6.40;;;;;16.98;36.98;97911.97;6256586;27;124753;-58
2021/03/12 11:04:09;;;;;;;;;5.00;5.00;;;;;16.61;37.06;97907.13;6247624;27;124899;-58
2021/03/12 11:07:12;;;;;;;;;5.40;5.00;;;;;16.33;37.26;97906.72;6253263;27;124842;-58
2021/03/12 11:10:15;;;;;;;;;7.40;7.00;;;;;16.18;37.23;97906.84;6274933;27;126310;-59
2021/03/12 11:13:17;;;;;;;;;6.00;6.00;;;;;16.06;37.48;97916.44;6240859;27;126154;-59
2021/03/12 11:16:19;;;;;;;;;6.25;6.00;;;;;16.08;37.87;97936.00;6248187;27;125803;-58
2021/03/12 11:19:22;;;;;;;;;5.20;4.80;;;;;15.83;37.93;97945.09;6253230;27;125338;-58
2021/03/12 11:22:24;;;;;;;;;4.00;4.00;;;;;15.89;38.10;97955.66;6254796;27;125800;-59
2021/03/12 11:25:25;;;;;;;;;4.40;4.40;;;;;16.40;37.13;97977.97;6238081;27;127223;-59
2021/03/12 11:28:31;;;;;;;;;5.00;4.00;;;;;16.42;36.64;97970.31;6253350;27;126997;-58
2021/03/12 11:31:33;;;;;;;;;4.00;4.00;;;;;16.23;37.77;97982.94;6255611;27;124676;-59
2021/03/12 11:34:34;;;;;;;;;3.75;3.75;;;;;15.74;38.18;97992.94;6256502;27;127516;-59
2021/03/12 11:37:37;;;;;;;;;3.00;3.00;;;;;15.20;38.82;98009.84;6224620;27;126335;-59
2021/03/12 11:40:39;;;;;;;;;3.60;3.60;;;;;14.76;39.37;98006.06;6241345;27;126352;-59
2021/03/12 11:43:41;;;;;;;;;2.00;2.00;;;;;14.29;39.15;97978.00;6252049;27;126587;-59
2021/03/12 11:46:42;;;;;;;;;2.00;2.00;;;;;14.35;39.75;98011.38;6252347;27;126065;-59
2021/03/12 11:49:47;;;;;;;;;2.00;2.00;;;;;14.09;40.45;97986.06;6251102;27;126368;-58
2021/03/12 11:52:49;;;;;;;;;2.00;2.00;;;;;14.40;40.45;98011.41;6244264;27;127242;-59
2021/03/12 11:55:50;;;;;;;;;3.00;2.00;;;;;15.32;40.70;98004.13;6253220;27;125372;-59
2021/03/12 11:58:52;;;;;;;;;2.00;2.00;;;;;16.54;37.70;97997.19;6245915;27;127763;-58
2021/03/12 12:01:56;;;;;;;;;3.00;3.00;;;;;17.88;35.46;97970.19;6246752;27;126309;-58
2021/03/12 12:04:58;;;;;;;;;3.00;3.00;;;;;19.09;33.38;98003.13;6256864;27;127454;-58
2021/03/12 12:08:00;;;;;;;;;4.00;3.60;;;;;19.32;32.27;97993.19;6254585;27;124752;-59
2021/03/12 12:11:02;;;;;;;;;5.00;4.00;;;;;19.71;31.93;97970.91;6258581;27;125156;-58
2021/03/12 12:14:03;;;;;;;;;6.00;5.40;;;;;20.45;31.37;97993.47;6256759;27;125484;-59
2021/03/12 12:17:05;;;;;;;;;5.00;5.00;;;;;20.74;30.28;97985.69;6254316;27;126937;-60
2021/03/12 12:20:08;;;;;;;;;6.00;5.00;;;;;21.16;30.06;97982.50;6256571;27;126386;-59
2021/03/12 12:23:11;;;;;;;;;7.40;6.00;;;;;21.55;29.24;97978.25;6256035;27;126442;-60
2021/03/12 12:26:12;;;;;;;;;6.00;6.00;;;;;21.66;29.07;97985.06;6247856;27;124922;-60
2021/03/12 12:29:15;;;;;;;;;5.40;5.40;;;;;21.70;28.41;97971.53;6243241;27;125135;-59
2021/03/12 12:32:24;;;;;;;;;5.00;5.00;;;;;21.38;28.53;97980.88;6244628;27;126070;-60
2021/03/12 12:35:30;;;;;;;;;6.00;6.00;;;;;21.41;29.16;97983.78;6247926;27;125980;-60
2021/03/12 12:38:31;;;;;;;;;6.60;6.00;;;;;21.27;28.79;97985.00;6233214;27;126714;-59
2021/03/12 12:41:34;;;;;;;;;6.00;5.40;;;;;21.17;29.01;97988.78;6244061;27;126593;-60
2021/03/12 12:44:36;;;;;;;;;7.00;7.00;;;;;20.81;28.62;97985.28;6244496;27;124922;-59
2021/03/12 12:47:46;;;;;;;;;7.00;7.00;;;;;20.67;30.01;98004.50;6247814;27;124796;-63
2021/03/12 12:50:48;;;;;;;;;5.80;5.40;;;;;20.28;29.99;98003.09;6244876;27;125017;-61
2021/03/12 12:53:50;;;;;;;;;6.00;6.00;;;;;20.03;29.32;97995.44;6253815;27;126731;-61
2021/03/12 12:56:51;;;;;;;;;9.50;8.00;;;;;19.74;30.18;98001.19;6232380;27;126834;-59
2021/03/12 12:59:53;;;;;;;;;9.40;9.00;;;;;19.38;30.84;98006.47;6254844;27;126692;-60
2021/03/12 13:02:55;;;;;;;;;8.00;8.00;;;;;19.19;31.23;98002.16;6228235;27;125660;-61
2021/03/12 13:05:57;;;;;;;;;8.25;7.00;;;;;18.99;31.25;98009.59;6241122;27;125220;-60
2021/03/12 13:08:58;;;;;;;;;10.00;8.00;;;;;18.53;31.78;97941.19;6250159;27;128207;-60
2021/03/12 13:12:00;;;;;;;;;7.20;6.20;;;;;18.68;31.36;97964.72;6256021;27;125306;-60
2021/03/12 13:15:03;;;;;;;;;7.00;6.00;;;;;18.71;30.59;98013.28;6252103;27;126625;-60
2021/03/12 13:18:05;;;;;;;;;7.00;7.00;;;;;18.28;30.74;98012.47;6253318;27;126919;-61
2021/03/12 13:21:07;;;;;;;;;6.20;5.20;;;;;17.97;31.19;98028.41;6261329;27;125858;-60
2021/03/12 13:24:13;;;;;;;;;6.00;5.20;;;;;17.35;32.49;98033.94;6260433;27;127828;-60
2021/03/12 13:27:14;;;;;;;;;4.20;4.00;;;;;16.79;32.89;98027.00;6243894;27;126206;-60
2021/03/12 13:30:19;;;;;;;;;6.00;5.00;;;;;16.44;33.68;98054.38;6254222;27;126546;-60
2021/03/12 13:33:21;;;;;;;;;5.00;4.40;;;;;15.79;34.55;98001.88;6257931;27;126488;-60
2021/03/12 13:36:23;;;;;;;;;4.00;4.00;;;;;15.76;35.13;98066.84;6258943;27;125490;-60
2021/03/12 13:39:24;;;;;;;;;4.00;4.00;;;;;15.23;36.00;98079.91;6246349;27;126527;-59
2021/03/12 13:42:27;;;;;;;;;3.80;3.80;;;;;14.77;36.22;98072.78;6256081;27;127525;-59
2021/03/12 13:45:30;;;;;;;;;4.00;3.00;;;;;14.53;36.82;98070.56;6255740;27;126777;-59
2021/03/12 13:48:32;;;;;;;;;3.40;3.00;;;;;14.25;37.34;98062.84;6238622;27;125403;-60
2021/03/12 13:51:34;;;;;;;;;2.60;2.60;;;;;13.99;38.18;98032.09;6263352;27;124469;-60
2021/03/12 13:54:35;;;;;;;;;4.80;4.00;;;;;14.29;37.70;98058.53;6261956;27;127445;-60
2021/03/12 13:57:38;;;;;;;;;3.20;3.20;;;;;14.37;37.67;98058.03;6249966;27;125750;-60
2021/03/12 14:00:43;;;;;;;;;4.00;4.00;;;;;14.55;36.87;98062.16;6253830;27;126252;-59
2021/03/12 14:03:45;;;;;;;;;3.75;3.00;;;;;14.61;36.32;98055.69;6259805;27;126145;-60
2021/03/12 14:06:47;;;;;;;;;4.50;4.00;;;;;14.66;36.20;98071.97;6249615;27;124279;-60
2021/03/12 14:09:48;;;;;;;;;4.00;4.00;;;;;14.55;36.60;98073.03;6246590;27;125341;-60
2021/03/12 14:12:51;;;;;;;;;3.80;3.00;;;;;14.27;38.04;98088.59;6251100;27;126636;-60
2021/03/12 14:16:11;;;;;;;;;4.00;3.80;;;;;14.32;39.34;98069.63;6258470;27;124762;-60
2021/03/12 14:19:13;;;;;;;;;4.00;4.00;;;;;14.37;39.05;98052.59;6250081;27;125413;-60
2021/03/12 14:22:15;;;;;;;;;3.00;3.00;;;;;14.73;38.88;98053.53;6254900;27;124159;-59
2021/03/12 14:25:16;;;;;;;;;4.00;3.00;;;;;15.21;37.70;98060.34;6257405;27;127893;-60
2021/03/12 14:28:37;;;;;;;;;5.00;4.60;;;;;15.68;35.95;98040.25;6245336;27;125654;-60
2021/03/12 14:31:41;;;;;;;;;2.00;2.00;;;;;16.11;35.60;98047.72;6257921;27;124840;-60